Time;durP1;ratioP1;P1;durP2;ratioP2;P2;SDS_P1;SDS_P2;PMS_P1;PMS_P2;Temp;Humidity;BMP_temperature;BMP_pressure;BME280_temperature;BME280_humidity;BME280_pressure;Samples;Min_cycle;Max_cycle;Signal;HPM_P1;HPM_P2
2023/09/05 00:02:08;;;;;;;5.97;4.77;;;21.10;76.60;;;23.88;49.25;102253.19;5016010;28;20272;-62
2023/09/05 00:04:37;;;;;;;5.40;4.90;;;21.10;76.60;;;23.85;49.00;102251.78;5015862;28;20555;-62
2023/09/05 00:07:05;;;;;;;5.90;5.17;;;21.10;76.60;;;23.79;48.96;102250.00;5016193;28;20571;-62
2023/09/05 00:09:32;;;;;;;4.33;3.93;;;21.00;76.00;;;23.73;49.14;102253.56;5015890;28;20233;-63
2023/09/05 00:12:00;;;;;;;4.47;4.10;;;21.00;76.10;;;23.64;49.20;102246.84;5015841;28;20266;-63
2023/09/05 00:14:28;;;;;;;4.80;4.03;;;20.90;76.40;;;23.58;49.67;102253.13;5029074;28;20719;-65
2023/09/05 00:16:55;;;;;;;4.73;4.33;;;20.80;76.90;;;23.50;49.78;102256.09;5035214;28;20256;-63
2023/09/05 00:19:22;;;;;;;6.17;4.40;;;20.80;77.40;;;23.45;49.89;102250.56;5018524;28;20201;-63
2023/09/05 00:21:51;;;;;;;4.97;4.37;;;20.70;77.50;;;23.41;50.30;102257.44;5015584;28;20298;-63
2023/09/05 00:24:31;;;;;;;6.80;4.50;;;20.70;78.00;;;23.34;50.12;102249.38;5015421;28;20551;-60
2023/09/05 00:27:00;;;;;;;5.70;4.50;;;20.60;77.80;;;23.32;50.24;102248.00;5015788;28;20219;-62
2023/09/05 00:29:30;;;;;;;4.30;3.90;;;20.60;77.90;;;23.26;50.23;102256.94;5015778;28;20602;-63
2023/09/05 00:31:59;;;;;;;3.90;3.50;;;20.50;77.90;;;23.21;50.30;102246.00;5015112;28;20245;-62
2023/09/05 00:34:27;;;;;;;3.73;3.43;;;20.40;77.90;;;23.14;50.36;102245.25;5015121;28;20454;-63
2023/09/05 00:36:58;;;;;;;4.27;3.90;;;20.40;78.10;;;23.07;50.53;102236.44;5014905;28;20754;-63
2023/09/05 00:39:26;;;;;;;4.10;3.70;;;20.30;78.40;;;23.00;50.80;102230.28;5015251;28;20195;-63
2023/09/05 00:41:55;;;;;;;3.70;3.40;;;20.20;78.80;;;22.94;50.87;102228.50;5013831;28;20314;-63
2023/09/05 00:44:23;;;;;;;4.87;4.47;;;20.10;79.10;;;22.90;51.05;102234.31;5013388;28;20203;-62
2023/09/05 00:46:52;;;;;;;4.33;3.70;;;20.10;79.40;;;22.86;51.14;102225.03;5014817;28;20687;-61
2023/09/05 00:49:22;;;;;;;4.33;3.97;;;20.00;79.20;;;22.81;51.30;102219.50;5014937;28;20603;-63
2023/09/05 00:51:51;;;;;;;3.97;3.60;;;20.00;79.40;;;22.76;51.42;102227.38;5033536;28;20198;-63
2023/09/05 00:54:20;;;;;;;3.87;3.57;;;20.00;79.50;;;22.70;51.61;102227.44;5034696;28;20276;-62
2023/09/05 00:56:49;;;;;;;4.00;3.67;;;19.90;79.70;;;22.65;51.59;102225.41;5049591;28;20330;-62
2023/09/05 00:59:17;;;;;;;4.33;3.50;;;19.80;79.80;;;22.62;51.79;102225.00;5015578;28;20367;-63
2023/09/05 01:01:44;;;;;;;4.60;3.63;;;19.80;80.30;;;22.59;51.77;102223.56;5014724;28;20215;-63
2023/09/05 01:04:13;;;;;;;5.70;3.60;;;19.70;80.40;;;22.58;51.98;102223.78;5014656;28;20214;-62
2023/09/05 01:06:53;;;;;;;5.87;3.50;;;19.70;80.70;;;22.55;51.86;102225.03;5014719;28;20203;-62
2023/09/05 01:09:37;;;;;;;3.87;3.23;;;19.70;80.70;;;22.52;52.04;102214.72;5014624;28;20682;-63
2023/09/05 01:12:07;;;;;;;3.53;3.20;;;19.70;80.80;;;22.53;51.96;102211.00;5014845;28;20202;-64
2023/09/05 01:14:34;;;;;;;3.53;3.13;;;19.70;80.70;;;22.53;51.96;102211.00;5025049;28;20281;-63
2023/09/05 01:17:01;;;;;;;3.80;3.30;;;19.70;81.40;;;22.51;51.96;102218.44;5014751;28;20699;-63
2023/09/05 01:19:29;;;;;;;3.93;3.47;;;19.70;80.70;;;22.49;51.97;102209.78;5031276;28;20226;-63
2023/09/05 01:22:13;;;;;;;3.23;2.97;;;19.60;80.70;;;22.43;52.03;102205.28;5033293;28;20293;-63
2023/09/05 01:24:42;;;;;;;4.23;3.70;;;19.60;80.70;;;22.43;52.27;102199.09;5032984;28;20277;-63
2023/09/05 01:27:17;;;;;;;5.40;3.27;;;19.60;81.00;;;22.40;52.26;102200.34;5014273;28;20274;-63
2023/09/05 01:29:45;;;;;;;4.33;3.17;;;19.60;81.20;;;22.39;52.30;102206.78;5013893;28;20258;-62
2023/09/05 01:32:14;;;;;;;3.90;3.60;;;19.50;81.30;;;22.39;52.66;102206.78;5014262;28;20195;-63
2023/09/05 01:34:41;;;;;;;6.23;4.40;;;19.50;81.50;;;22.40;52.54;102194.16;5013956;28;20215;-63
2023/09/05 01:37:14;;;;;;;4.57;3.17;;;19.50;81.70;;;22.40;52.40;102200.34;5013918;28;20229;-61
2023/09/05 01:39:43;;;;;;;4.80;3.77;;;19.60;81.90;;;22.42;52.44;102198.28;5027923;28;20233;-62
2023/09/05 01:42:10;;;;;;;3.33;3.03;;;19.50;81.60;;;22.43;52.36;102193.72;5032873;28;20210;-63
2023/09/05 01:44:38;;;;;;;3.97;3.60;;;19.60;81.40;;;22.43;52.63;102194.56;5021172;28;20266;-64
2023/09/05 01:47:06;;;;;;;4.93;3.40;;;19.60;81.50;;;22.44;52.29;102190.03;5004893;28;20199;-63
2023/09/05 01:49:33;;;;;;;3.40;3.10;;;19.60;81.40;;;22.44;52.38;102201.56;5013817;28;20191;-63
2023/09/05 01:52:00;;;;;;;5.07;3.67;;;19.60;81.50;;;22.43;52.24;102194.56;5013846;28;20266;-63
2023/09/05 01:54:28;;;;;;;4.13;3.67;;;19.60;81.40;;;22.41;52.40;102210.06;5013871;28;20726;-63
2023/09/05 01:56:56;;;;;;;4.00;3.47;;;19.60;81.50;;;22.40;52.51;102191.47;5014078;28;20215;-62
2023/09/05 01:59:23;;;;;;;3.63;3.03;;;19.50;81.40;;;22.38;52.50;102190.88;5013880;28;20191;-62
2023/09/05 02:01:50;;;;;;;5.73;3.50;;;19.60;81.60;;;22.35;52.57;102186.75;5013937;28;20302;-62
2023/09/05 02:04:17;;;;;;;3.40;3.10;;;19.50;81.40;;;22.33;52.68;102182.66;5013822;28;20195;-61
2023/09/05 02:06:44;;;;;;;3.50;3.23;;;19.50;81.70;;;22.32;52.56;102181.03;5013558;28;20301;-63
2023/09/05 02:09:12;;;;;;;3.47;3.17;;;19.50;81.70;;;22.28;52.53;102191.34;5013146;28;20195;-63
2023/09/05 02:11:39;;;;;;;3.93;3.63;;;19.50;81.60;;;22.24;52.73;102185.59;5013989;28;20219;-63
2023/09/05 02:14:07;;;;;;;3.87;3.57;;;19.40;81.80;;;22.22;53.08;102184.16;5024581;28;20659;-63
2023/09/05 02:16:34;;;;;;;4.60;3.43;;;19.40;82.00;;;22.19;52.92;102181.91;5033284;28;20206;-62
2023/09/05 02:19:01;;;;;;;4.73;3.70;;;19.40;82.10;;;22.17;52.85;102178.63;5020777;28;20195;-62
2023/09/05 02:21:28;;;;;;;4.10;3.73;;;19.30;81.90;;;22.13;52.82;102177.41;5013909;28;20235;-62
2023/09/05 02:23:55;;;;;;;4.37;3.80;;;19.30;81.90;;;22.09;52.80;102165.47;5013770;28;20199;-63
2023/09/05 02:26:22;;;;;;;4.07;3.67;;;19.30;81.90;;;22.03;53.16;102160.97;5013402;28;20215;-61
2023/09/05 02:28:49;;;;;;;4.47;3.63;;;19.20;82.00;;;21.99;52.85;102154.38;5013081;28;20198;-61
2023/09/05 02:31:18;;;;;;;5.20;3.80;;;19.20;82.20;;;21.96;52.94;102157.50;5013774;28;20215;-63
2023/09/05 02:33:45;;;;;;;4.13;3.73;;;19.10;82.30;;;21.92;53.56;102151.72;5013418;28;20195;-63
2023/09/05 02:36:17;;;;;;;4.67;3.63;;;19.10;82.70;;;21.92;53.34;102158.94;5013180;28;20311;-63
2023/09/05 02:38:46;;;;;;;4.27;3.87;;;19.00;83.00;;;21.91;53.46;102163.50;5013600;28;20219;-62
2023/09/05 02:41:14;;;;;;;4.27;3.33;;;19.00;83.10;;;21.91;53.37;102158.16;5017361;28;20211;-63
2023/09/05 02:43:42;;;;;;;4.93;3.40;;;19.10;83.20;;;21.93;53.46;102165.97;5017363;28;20282;-63
2023/09/05 02:46:09;;;;;;;4.43;3.70;;;19.10;83.20;;;21.94;53.45;102168.41;5016535;28;20297;-61
2023/09/05 02:48:40;;;;;;;4.73;4.10;;;19.10;83.20;;;21.97;53.55;102172.53;5017034;28;20734;-62
2023/09/05 02:51:10;;;;;;;4.10;3.77;;;19.10;83.00;;;22.00;53.42;102172.13;5017220;28;20246;-61
2023/09/05 02:53:38;;;;;;;4.37;3.70;;;19.20;83.20;;;22.05;53.38;102174.97;5016421;28;20226;-62
2023/09/05 02:56:05;;;;;;;4.97;3.63;;;19.20;83.10;;;22.11;53.03;102174.09;5015728;28;20223;-62
2023/09/05 02:58:33;;;;;;;3.50;2.90;;;19.20;83.00;;;22.14;52.86;102173.69;5016962;28;20256;-63
2023/09/05 03:01:04;;;;;;;3.83;3.53;;;19.30;83.50;;;22.17;52.92;102173.25;5016897;28;20215;-62
2023/09/05 03:03:32;;;;;;;4.60;3.57;;;19.30;82.40;;;22.15;52.61;102170.81;5016783;28;20237;-63
2023/09/05 03:06:10;;;;;;;4.17;3.87;;;19.30;82.10;;;22.11;52.72;102160.69;5016349;28;20215;-62
2023/09/05 03:08:38;;;;;;;3.90;3.60;;;19.30;82.10;;;22.12;52.47;102171.22;5016603;28;20195;-62
2023/09/05 03:11:05;;;;;;;4.17;3.83;;;19.30;82.00;;;22.09;52.82;102170.81;5016207;28;20556;-62
2023/09/05 03:13:32;;;;;;;4.20;3.83;;;19.30;82.10;;;22.04;53.01;102165.28;5022426;28;20713;-63
2023/09/05 03:15:59;;;;;;;4.20;3.80;;;19.20;82.30;;;22.01;52.80;102152.31;5035959;28;20221;-63
2023/09/05 03:18:27;;;;;;;4.63;3.57;;;19.10;82.20;;;21.96;52.99;102160.19;5028219;28;20199;-62
2023/09/05 03:20:53;;;;;;;3.77;3.47;;;19.10;82.30;;;21.91;53.11;102151.94;5016552;28;20285;-63
2023/09/05 03:23:23;;;;;;;4.60;4.10;;;19.10;82.30;;;21.87;53.04;102150.75;5016059;28;20298;-63
2023/09/05 03:25:52;;;;;;;4.43;4.03;;;19.00;82.70;;;21.85;53.41;102150.09;5015895;28;20309;-61
2023/09/05 03:28:20;;;;;;;4.37;4.07;;;19.00;82.80;;;21.85;53.18;102152.78;5016193;28;20230;-68
2023/09/05 03:30:47;;;;;;;3.70;3.40;;;19.00;82.80;;;21.81;53.49;102146.19;5016740;28;20239;-62
2023/09/05 03:33:15;;;;;;;4.40;4.00;;;19.00;83.10;;;21.80;53.63;102141.88;5015278;28;20194;-62
2023/09/05 03:35:42;;;;;;;5.83;4.27;;;18.90;82.90;;;21.77;53.43;102139.63;5015872;28;20218;-63
2023/09/05 03:38:09;;;;;;;4.83;3.43;;;18.90;83.00;;;21.76;53.13;102135.28;5017389;28;20195;-63
2023/09/05 03:40:38;;;;;;;6.27;4.17;;;18.90;83.10;;;21.73;53.07;102141.09;5036309;28;20663;-64
2023/09/05 03:43:05;;;;;;;3.90;3.50;;;18.90;83.10;;;21.71;53.63;102140.44;5035944;28;20295;-63
2023/09/05 03:45:32;;;;;;;5.57;3.97;;;18.80;83.30;;;21.69;53.65;102147.88;5027924;28;20212;-63
2023/09/05 03:48:00;;;;;;;5.10;4.57;;;18.80;83.20;;;21.67;53.77;102136.56;5015641;28;20207;-64
2023/09/05 03:50:29;;;;;;;5.17;4.40;;;18.80;83.20;;;21.66;53.34;102142.94;5015568;28;20199;-65
2023/09/05 03:52:56;;;;;;;4.90;3.83;;;18.70;83.20;;;21.61;53.46;102130.19;5015979;28;20318;-62
2023/09/05 03:55:23;;;;;;;4.33;4.03;;;18.70;83.40;;;21.59;53.36;102130.41;5015620;28;20223;-63
2023/09/05 03:57:51;;;;;;;4.43;4.03;;;18.70;83.40;;;21.57;54.00;102131.66;5016093;28;20200;-63
2023/09/05 04:00:19;;;;;;;4.77;4.00;;;18.70;83.60;;;21.55;53.96;102131.06;5014588;28;20286;-63
2023/09/05 04:02:46;;;;;;;4.97;4.40;;;18.70;83.70;;;21.55;54.05;102136.41;5015514;28;20215;-62
2023/09/05 04:05:17;;;;;;;4.03;3.73;;;18.60;83.70;;;21.54;53.55;102137.44;5015421;28;20671;-62
2023/09/05 04:07:44;;;;;;;4.83;4.30;;;18.60;83.70;;;21.53;53.75;102133.13;5015484;28;20195;-63
2023/09/05 04:10:11;;;;;;;4.73;3.70;;;18.60;83.60;;;21.53;53.55;102138.50;5015580;28;20187;-63
2023/09/05 04:12:38;;;;;;;5.10;4.60;;;18.60;83.70;;;21.51;54.36;102135.19;5015470;28;20562;-63
2023/09/05 04:15:08;;;;;;;4.53;4.13;;;18.60;83.90;;;21.49;53.71;102123.84;5015201;28;20206;-63
2023/09/05 04:17:36;;;;;;;6.27;3.80;;;18.60;84.00;;;21.49;54.33;102135.41;5015422;28;20297;-63
2023/09/05 04:20:08;;;;;;;4.93;4.43;;;18.60;84.00;;;21.49;53.77;102127.34;5015551;28;20187;-63
2023/09/05 04:22:35;;;;;;;6.17;4.60;;;18.60;84.20;;;21.50;54.45;102133.53;5015215;28;20600;-63
2023/09/05 04:25:02;;;;;;;4.93;4.43;;;18.60;84.30;;;21.52;54.14;102132.28;5015106;28;20261;-63
2023/09/05 04:27:29;;;;;;;4.70;4.40;;;18.60;84.40;;;21.53;53.84;102139.31;5014783;28;20211;-63
2023/09/05 04:29:56;;;;;;;4.20;3.80;;;18.70;84.50;;;21.56;54.36;102138.88;5015116;28;20500;-63
2023/09/05 04:32:28;;;;;;;5.80;5.17;;;18.70;84.40;;;21.58;54.19;102136.00;5014826;28;20230;-61
2023/09/05 04:34:58;;;;;;;4.60;4.20;;;18.70;84.30;;;21.59;54.12;102138.44;5014910;28;20230;-61
2023/09/05 04:37:26;;;;;;;4.93;4.47;;;18.70;83.80;;;21.58;54.18;102131.44;5014862;28;20221;-63
2023/09/05 04:39:57;;;;;;;5.30;4.33;;;18.70;83.80;;;21.58;53.86;102136.78;5030356;28;20205;-62
2023/09/05 04:42:25;;;;;;;7.10;4.03;;;18.70;83.70;;;21.57;53.61;102129.81;5035149;28;20289;-63
2023/09/05 04:44:53;;;;;;;5.60;4.27;;;18.70;83.60;;;21.54;53.84;102132.91;5025900;28;20587;-63
2023/09/05 04:47:22;;;;;;;4.50;4.10;;;18.70;83.60;;;21.53;54.14;102125.91;5014129;28;20294;-63
2023/09/05 04:49:53;;;;;;;6.73;4.23;;;18.70;83.60;;;21.52;53.69;102126.09;5014987;28;20207;-63
2023/09/05 04:52:22;;;;;;;5.60;5.10;;;18.70;83.70;;;21.51;53.64;102130.63;5029768;28;20608;-63
2023/09/05 04:54:50;;;;;;;5.20;4.60;;;18.60;83.50;;;21.51;53.95;102140.56;5014273;28;20195;-61
2023/09/05 04:57:17;;;;;;;4.97;4.57;;;18.60;83.70;;;21.48;53.40;102144.47;5014464;28;20722;-63
2023/09/05 04:59:47;;;;;;;5.17;4.67;;;18.60;83.50;;;21.45;53.96;102144.91;4995196;28;20585;-63
2023/09/05 05:02:15;;;;;;;4.17;3.87;;;18.60;83.70;;;21.44;53.96;102145.91;4994572;28;20251;-62
2023/09/05 05:04:42;;;;;;;4.53;3.97;;;18.60;83.70;;;21.44;53.57;102145.91;4993737;28;20195;-63
2023/09/05 05:07:11;;;;;;;5.73;4.73;;;18.60;83.80;;;21.43;54.08;102143.47;4995049;28;20196;-63
2023/09/05 05:09:39;;;;;;;6.27;4.33;;;18.50;83.80;;;21.43;53.86;102149.66;4994849;28;20192;-63
2023/09/05 05:12:08;;;;;;;5.17;4.47;;;18.50;84.10;;;21.43;54.14;102151.50;4994473;28;20290;-64
2023/09/05 05:14:36;;;;;;;5.60;4.93;;;18.50;84.10;;;21.43;53.90;102146.13;5018368;28;20187;-63
2023/09/05 05:17:04;;;;;;;5.03;4.53;;;18.50;84.20;;;21.45;53.89;102141.38;5014261;28;20191;-63
2023/09/05 05:19:31;;;;;;;5.63;5.13;;;18.50;84.30;;;21.47;54.22;102145.50;5014237;28;20616;-65
2023/09/05 05:21:58;;;;;;;8.17;5.07;;;18.50;84.40;;;21.49;53.84;102142.59;5014137;28;20217;-63
2023/09/05 05:24:27;;;;;;;10.47;5.87;;;18.50;84.50;;;21.51;53.95;102140.56;5033993;28;20191;-61
2023/09/05 05:26:54;;;;;;;5.53;4.77;;;18.60;84.60;;;21.52;54.23;102137.66;5013293;28;20249;-63
2023/09/05 05:29:21;;;;;;;6.03;5.20;;;18.60;84.50;;;21.54;53.90;102140.94;5013370;28;20203;-63
2023/09/05 05:31:48;;;;;;;5.93;4.93;;;18.60;84.30;;;21.56;54.31;102132.72;5013616;28;20724;-63
2023/09/05 05:34:16;;;;;;;9.00;6.13;;;18.60;84.30;;;21.56;54.32;102136.19;5013861;28;20199;-64
2023/09/05 05:36:43;;;;;;;7.83;5.27;;;18.70;84.50;;;21.57;53.99;102137.84;5013175;28;20605;-64
2023/09/05 05:39:12;;;;;;;8.43;6.30;;;18.70;84.40;;;21.58;54.48;102138.69;5014217;28;20195;-64
2023/09/05 05:41:40;;;;;;;6.33;5.57;;;18.70;84.50;;;21.56;54.71;102136.19;5013672;28;20202;-64
2023/09/05 05:44:07;;;;;;;11.93;6.33;;;18.70;84.40;;;21.57;54.39;102135.16;5012989;28;20199;-63
2023/09/05 05:46:34;;;;;;;6.43;5.00;;;18.80;84.40;;;21.62;54.13;102139.06;5013683;28;20293;-64
2023/09/05 05:49:02;;;;;;;9.33;5.50;;;18.80;84.40;;;21.63;54.55;102140.72;5013433;28;20195;-64
2023/09/05 05:51:31;;;;;;;7.67;4.97;;;18.80;84.30;;;21.66;54.26;102148.31;5013936;28;20607;-64
2023/09/05 05:53:58;;;;;;;8.63;5.10;;;18.90;84.30;;;21.73;54.30;102143.78;5013314;28;20664;-64
2023/09/05 05:56:25;;;;;;;10.53;5.40;;;18.90;84.30;;;21.79;54.40;102138.38;5012948;28;20340;-63
2023/09/05 05:58:53;;;;;;;6.43;4.70;;;19.00;84.00;;;21.85;54.17;102136.69;5013117;28;20386;-65
2023/09/05 06:01:21;;;;;;;6.57;5.20;;;19.00;84.00;;;21.91;54.31;102138.53;5013167;28;20203;-64
2023/09/05 06:03:48;;;;;;;7.20;5.30;;;19.10;83.90;;;21.96;53.67;102134.19;5012848;28;20297;-63
2023/09/05 06:06:15;;;;;;;6.03;5.07;;;19.10;83.70;;;22.00;53.91;102130.03;5011260;28;20625;-60
2023/09/05 06:08:42;;;;;;;6.10;4.57;;;19.20;83.60;;;22.05;53.60;102132.06;5013040;28;20225;-62
2023/09/05 06:11:09;;;;;;;7.30;5.30;;;19.30;83.50;;;22.11;53.20;102132.00;5011546;28;20234;-63
2023/09/05 06:13:36;;;;;;;5.27;4.87;;;19.30;83.40;;;22.18;53.51;102127.44;5019355;28;20231;-63
2023/09/05 06:16:05;;;;;;;6.10;4.97;;;19.40;83.30;;;22.25;53.26;102124.69;5019132;28;20268;-63
2023/09/05 06:18:32;;;;;;;5.33;4.83;;;19.40;83.20;;;22.33;53.29;102124.44;5020098;28;20201;-62
2023/09/05 06:20:59;;;;;;;5.73;4.67;;;19.50;83.10;;;22.35;52.62;102114.31;5036870;28;20248;-64
2023/09/05 06:23:26;;;;;;;7.70;5.17;;;19.50;83.40;;;22.36;52.96;102113.28;5036407;28;20214;-64
2023/09/05 06:25:53;;;;;;;5.17;4.40;;;19.50;82.50;;;22.36;52.97;102117.81;5025203;28;20263;-65
2023/09/05 06:28:20;;;;;;;6.40;5.80;;;19.60;82.60;;;22.40;52.80;102122.53;5017026;28;20286;-63
2023/09/05 06:30:47;;;;;;;6.13;3.90;;;19.60;82.60;;;22.45;52.84;102111.97;5016314;28;20195;-64
2023/09/05 06:33:16;;;;;;;6.57;4.17;;;19.60;82.50;;;22.51;52.70;102119.13;5016545;28;20222;-64
2023/09/05 06:35:43;;;;;;;4.40;4.00;;;19.70;82.40;;;22.59;52.86;102118.03;5016643;28;20218;-63
2023/09/05 06:38:10;;;;;;;5.93;4.43;;;19.80;82.40;;;22.67;52.59;102110.56;5017404;28;20194;-63
2023/09/05 06:40:38;;;;;;;7.97;5.10;;;19.80;82.40;;;22.81;52.53;102109.41;5016668;28;20192;-63
2023/09/05 06:43:06;;;;;;;6.97;4.53;;;19.90;82.40;;;22.96;52.26;102097.47;5016799;28;20217;-63
2023/09/05 06:45:33;;;;;;;6.87;4.90;;;20.00;82.20;;;23.04;51.62;102106.06;5002916;28;20230;-63
2023/09/05 06:48:00;;;;;;;13.33;9.77;;;20.10;81.90;;;23.13;51.91;102114.66;5016564;28;20616;-65
2023/09/05 06:50:28;;;;;;;8.13;6.70;;;20.20;82.00;;;23.24;51.64;102105.84;5016908;28;20206;-62
2023/09/05 06:52:55;;;;;;;6.20;4.53;;;20.30;81.90;;;23.34;51.35;102115.00;5016661;28;20266;-62
2023/09/05 06:55:22;;;;;;;5.63;4.10;;;20.40;81.60;;;23.43;50.93;102110.19;5015907;28;20549;-63
2023/09/05 06:57:49;;;;;;;5.60;4.10;;;20.40;80.90;;;23.44;51.07;102101.06;5016471;28;20263;-63
2023/09/05 07:00:17;;;;;;;4.43;3.40;;;20.50;80.60;;;23.46;51.07;102104.38;5015603;28;20195;-64
2023/09/05 07:02:44;;;;;;;4.60;3.97;;;20.60;80.50;;;23.46;50.78;102109.75;5016040;28;20306;-63
2023/09/05 07:05:11;;;;;;;4.83;3.97;;;20.60;80.50;;;23.47;51.05;102106.81;5016510;28;20222;-64
2023/09/05 07:07:40;;;;;;;4.90;4.37;;;20.60;80.50;;;23.55;50.92;102113.75;5016031;28;20234;-63
2023/09/05 07:10:08;;;;;;;4.20;3.30;;;20.70;80.60;;;23.77;51.32;102108.72;5015962;28;20286;-61
2023/09/05 07:12:36;;;;;;;4.00;3.70;;;20.80;81.00;;;24.14;50.36;102111.09;5015940;28;20187;-63
2023/09/05 07:15:04;;;;;;;3.97;3.60;;;20.90;80.80;;;24.65;49.61;102112.34;5015656;28;20222;-63
2023/09/05 07:17:31;;;;;;;3.87;3.50;;;21.10;80.50;;;25.12;48.37;102105.91;5017922;28;20274;-63
2023/09/05 07:19:58;;;;;;;4.57;3.50;;;21.40;79.40;;;25.66;48.08;102114.56;5031091;28;20194;-62
2023/09/05 07:22:25;;;;;;;3.27;3.00;;;21.80;79.50;;;25.99;46.88;102106.53;5035592;28;20312;-63
2023/09/05 07:24:54;;;;;;;4.77;3.83;;;22.20;77.80;;;26.14;45.47;102104.97;5024860;28;20217;-63
2023/09/05 07:27:21;;;;;;;4.90;3.50;;;22.50;75.50;;;26.18;45.04;102107.97;5014853;28;20199;-63
2023/09/05 07:29:48;;;;;;;4.77;3.40;;;22.70;73.90;;;26.22;44.70;102109.13;5016031;28;20719;-65
2023/09/05 07:32:16;;;;;;;4.57;3.83;;;22.90;73.50;;;26.37;44.46;102109.38;5015703;28;20283;-65
2023/09/05 07:34:43;;;;;;;5.30;3.43;;;23.10;73.20;;;26.65;44.42;102116.56;5014710;28;20223;-63
2023/09/05 07:37:10;;;;;;;5.20;3.57;;;23.30;73.30;;;27.11;43.89;102115.38;5015619;28;20187;-64
2023/09/05 07:39:37;;;;;;;3.20;2.90;;;23.50;72.70;;;27.70;42.68;102114.50;5015568;28;20191;-65
2023/09/05 07:42:05;;;;;;;5.57;3.10;;;23.80;72.30;;;28.45;41.75;102121.72;5015103;28;20242;-63
2023/09/05 07:44:32;;;;;;;4.07;3.70;;;24.20;71.70;;;29.30;40.25;102119.56;5015108;28;20197;-63
2023/09/05 07:46:59;;;;;;;3.70;3.40;;;24.70;71.10;;;30.21;38.63;102118.97;5022283;28;20304;-64
2023/09/05 07:49:26;;;;;;;3.43;3.13;;;25.30;68.90;;;30.98;36.53;102115.91;5015032;28;20195;-63
2023/09/05 07:51:57;;;;;;;3.80;3.13;;;25.90;65.80;;;31.82;34.96;102122.09;5015347;28;20191;-64
2023/09/05 07:54:25;;;;;;;3.77;3.17;;;26.60;63.50;;;32.44;33.75;102125.97;5013910;28;20286;-63
2023/09/05 07:56:52;;;;;;;4.83;2.80;;;27.20;60.80;;;32.85;32.70;102120.97;5015047;28;20266;-64
2023/09/05 07:59:23;;;;;;;5.67;3.30;;;27.60;58.90;;;33.12;32.11;102124.75;5014029;28;20540;-64
2023/09/05 08:01:50;;;;;;;5.80;3.10;;;28.00;57.30;;;33.34;31.77;102125.03;5015234;28;20183;-63
2023/09/05 08:04:17;;;;;;;2.90;2.47;;;28.40;56.20;;;33.55;31.21;102130.25;5016196;28;20199;-63
2023/09/05 08:06:44;;;;;;;3.47;3.07;;;28.60;55.80;;;34.08;31.16;102128.94;5017309;28;20234;-63
2023/09/05 08:09:11;;;;;;;3.10;2.83;;;29.00;55.70;;;34.64;30.12;102126.88;5014542;28;20269;-65
2023/09/05 08:11:38;;;;;;;5.33;3.37;;;29.30;54.60;;;35.27;29.58;102120.72;5014866;28;20180;-64
2023/09/05 08:14:05;;;;;;;3.00;2.70;;;29.70;54.00;;;35.77;28.40;102136.06;5025560;28;20190;-64
2023/09/05 08:16:34;;;;;;;3.10;2.90;;;30.10;52.40;;;36.24;27.91;102133.84;5034895;28;20329;-64
2023/09/05 08:19:02;;;;;;;4.22;2.78;;;30.50;51.60;;;36.75;27.65;102136.09;5021608;28;20237;-63
2023/09/05 08:21:29;;;;;;;4.72;3.50;;;31.00;51.20;;;37.58;27.57;102135.88;5015246;28;20270;-63
2023/09/05 08:23:56;;;;;;;4.07;2.85;;;31.50;51.40;;;38.29;25.47;102137.19;5014775;28;20684;-65
2023/09/05 08:26:23;;;;;;;5.68;2.88;;;31.90;47.90;;;38.66;25.81;102130.09;5014723;28;20253;-64
2023/09/05 08:28:50;;;;;;;3.00;2.53;;;32.40;47.80;;;39.00;24.81;102134.66;5014450;28;20283;-64
2023/09/05 08:31:18;;;;;;;3.15;2.63;;;32.80;46.40;;;39.29;23.99;102118.13;5015129;28;20238;-64
2023/09/05 08:33:47;;;;;;;3.10;2.80;;;33.10;45.00;;;39.64;24.63;102126.97;5014344;28;20187;-64
2023/09/05 08:36:14;;;;;;;3.47;2.45;;;33.50;45.00;;;40.20;24.06;102134.56;5012772;28;20676;-64
2023/09/05 08:38:41;;;;;;;3.10;2.83;;;33.80;45.10;;;40.85;22.91;102132.84;5023400;28;20244;-64
2023/09/05 08:41:08;;;;;;;3.72;2.60;;;34.30;43.70;;;41.12;21.73;102127.47;5017060;28;20191;-64
2023/09/05 08:43:35;;;;;;;3.25;3.05;;;34.60;41.20;;;40.69;22.38;102129.97;5013692;28;20219;-63
2023/09/05 08:46:06;;;;;;;3.45;2.80;;;34.80;40.30;;;40.05;23.17;102126.97;5008449;28;20215;-64
2023/09/05 08:48:33;;;;;;;2.95;2.58;;;34.70;40.40;;;39.92;23.43;102126.06;5014127;28;20203;-64
2023/09/05 08:51:26;;;;;;;3.72;2.88;;;34.60;41.80;;;40.42;23.17;102111.25;5014523;28;20277;-65
2023/09/05 08:53:56;;;;;;;2.97;2.72;;;34.60;41.50;;;40.90;21.90;102119.66;5014392;28;20196;-65
2023/09/05 08:56:24;;;;;;;3.05;2.78;;;34.70;39.90;;;41.10;22.24;102124.22;5013775;28;20289;-63
2023/09/05 08:58:54;;;;;;;3.45;3.00;;;34.80;39.60;;;41.18;21.06;102119.72;5016693;28;20195;-62
2023/09/05 09:01:24;;;;;;;2.97;2.67;;;34.90;38.30;;;41.05;21.73;102115.38;5013978;28;20664;-64
2023/09/05 09:03:53;;;;;;;3.13;2.65;;;35.10;38.70;;;40.80;21.30;102117.31;5012486;28;20214;-62
2023/09/05 09:06:24;;;;;;;3.25;2.72;;;34.90;37.90;;;40.62;22.01;102118.69;5012554;28;20223;-64
2023/09/05 09:08:52;;;;;;;3.65;3.10;;;35.00;38.70;;;40.48;21.73;102123.75;5013560;28;20256;-65
2023/09/05 09:11:21;;;;;;;3.00;2.72;;;35.00;38.50;;;40.62;22.07;102124.22;5009367;28;20328;-63
2023/09/05 09:13:50;;;;;;;2.30;2.10;;;35.10;39.30;;;41.08;21.78;102114.69;5020277;28;20189;-64
2023/09/05 09:16:18;;;;;;;3.22;2.83;;;35.20;39.30;;;41.45;22.08;102129.25;5031378;28;20224;-64
2023/09/05 09:18:49;;;;;;;3.15;2.88;;;35.30;39.00;;;41.57;20.83;102126.47;5019387;28;20199;-62
2023/09/05 09:21:17;;;;;;;3.88;2.88;;;35.40;38.20;;;41.74;21.18;102120.66;5013562;28;20218;-63
2023/09/05 09:23:50;;;;;;;2.92;2.72;;;35.70;38.20;;;41.97;21.26;102107.88;5003247;28;20229;-64
2023/09/05 09:26:17;;;;;;;2.83;2.55;;;35.80;37.60;;;42.37;21.02;102111.34;5007119;28;20246;-64
2023/09/05 09:28:45;;;;;;;2.75;2.28;;;36.10;37.90;;;42.76;20.68;102112.34;5010467;28;20365;-64
2023/09/05 09:31:12;;;;;;;2.88;2.65;;;36.30;37.60;;;42.78;20.29;102109.19;5009798;28;20199;-64
2023/09/05 09:33:41;;;;;;;2.53;2.33;;;36.50;36.70;;;42.84;20.24;102113.31;5010899;28;20550;-63
2023/09/05 09:36:11;;;;;;;6.10;2.40;;;36.60;36.60;;;43.00;20.33;102111.34;5010391;28;20217;-63
2023/09/05 09:38:39;;;;;;;3.88;2.45;;;36.70;36.50;;;43.20;19.59;102112.97;5010455;28;20201;-64
2023/09/05 09:41:10;;;;;;;2.58;2.40;;;36.90;35.80;;;43.08;19.97;102107.53;5009641;28;20219;-63
2023/09/05 09:43:37;;;;;;;3.50;2.83;;;36.90;35.70;;;43.23;20.27;102108.66;5018263;28;20206;-65
2023/09/05 09:46:08;;;;;;;2.83;2.50;;;37.00;35.80;;;43.57;19.61;102113.41;5009930;28;20223;-64
2023/09/05 09:48:36;;;;;;;2.78;2.58;;;37.10;35.90;;;43.96;19.37;102111.44;5009849;28;20187;-63
2023/09/05 09:51:06;;;;;;;3.25;2.85;;;37.40;36.00;;;44.43;19.00;102107.13;5008962;28;20544;-64
2023/09/05 09:53:38;;;;;;;2.40;2.20;;;37.60;34.70;;;44.36;18.57;102109.00;5015648;28;20525;-66
2023/09/05 09:56:10;;;;;;;2.80;2.30;;;37.70;34.20;;;44.13;19.21;102097.88;5008774;28;20219;-64
2023/09/05 09:58:41;;;;;;;2.60;2.40;;;37.80;34.60;;;44.26;18.70;102106.84;5009807;28;20199;-64
2023/09/05 10:01:11;;;;;;;2.72;2.10;;;37.90;34.40;;;44.43;19.66;102103.56;5009251;28;20203;-65
2023/09/05 10:03:40;;;;;;;3.08;2.30;;;38.10;35.10;;;44.54;18.78;102090.66;5010347;28;20211;-65
2023/09/05 10:06:09;;;;;;;3.03;2.78;;;38.00;34.90;;;44.17;19.36;102095.16;5008133;28;21005;-63
2023/09/05 10:08:37;;;;;;;2.60;2.40;;;38.00;34.40;;;43.85;19.44;102085.41;5008648;28;20191;-65
2023/09/05 10:11:14;;;;;;;2.58;2.38;;;38.00;34.50;;;43.25;19.91;102089.69;5009709;28;20715;-63
2023/09/05 10:13:44;;;;;;;2.88;2.67;;;37.90;34.10;;;42.60;20.58;102088.56;5016740;28;20559;-63
2023/09/05 10:16:12;;;;;;;2.30;2.10;;;37.70;34.10;;;41.86;21.33;102090.16;5027288;28;20215;-62
2023/09/05 10:18:46;;;;;;;2.28;2.17;;;37.60;34.60;;;41.18;22.65;102098.41;5004291;28;20222;-63